sensor_id;sensor_type;location;lat;lon;timestamp;temperature;humidity
10062;DHT22;5070;52.382;5.270;2023-03-01T00:01:36;16.30;68.10
10062;DHT22;5070;52.382;5.270;2023-03-01T00:04:04;16.30;68.00
10062;DHT22;5070;52.382;5.270;2023-03-01T00:06:33;16.30;67.90
10062;DHT22;5070;52.382;5.270;2023-03-01T00:09:01;16.30;67.90
10062;DHT22;5070;52.382;5.270;2023-03-01T00:11:31;16.30;67.90
10062;DHT22;5070;52.382;5.270;2023-03-01T00:14:01;16.30;67.80
10062;DHT22;5070;52.382;5.270;2023-03-01T00:16:33;16.20;67.80
10062;DHT22;5070;52.382;5.270;2023-03-01T00:19:02;16.20;67.80
10062;DHT22;5070;52.382;5.270;2023-03-01T00:21:30;16.20;67.80
10062;DHT22;5070;52.382;5.270;2023-03-01T00:23:59;16.20;67.80
10062;DHT22;5070;52.382;5.270;2023-03-01T00:26:28;16.20;67.80
10062;DHT22;5070;52.382;5.270;2023-03-01T00:28:57;16.20;67.60
10062;DHT22;5070;52.382;5.270;2023-03-01T00:31:27;16.10;67.60
10062;DHT22;5070;52.382;5.270;2023-03-01T00:33:59;16.10;67.70
10062;DHT22;5070;52.382;5.270;2023-03-01T00:36:29;16.10;67.70
10062;DHT22;5070;52.382;5.270;2023-03-01T00:39:00;16.10;67.70
10062;DHT22;5070;52.382;5.270;2023-03-01T00:41:30;16.10;67.70
10062;DHT22;5070;52.382;5.270;2023-03-01T00:43:58;16.20;67.60
10062;DHT22;5070;52.382;5.270;2023-03-01T00:46:26;16.20;67.60
10062;DHT22;5070;52.382;5.270;2023-03-01T00:48:57;16.20;67.60
10062;DHT22;5070;52.382;5.270;2023-03-01T00:51:27;16.20;67.50
10062;DHT22;5070;52.382;5.270;2023-03-01T00:53:57;16.20;67.40
10062;DHT22;5070;52.382;5.270;2023-03-01T00:56:27;16.30;67.40
10062;DHT22;5070;52.382;5.270;2023-03-01T00:58:58;16.30;68.10
10062;DHT22;5070;52.382;5.270;2023-03-01T01:01:28;16.30;67.30
10062;DHT22;5070;52.382;5.270;2023-03-01T01:03:58;16.30;67.20
10062;DHT22;5070;52.382;5.270;2023-03-01T01:06:27;16.30;67.20
10062;DHT22;5070;52.382;5.270;2023-03-01T01:08:57;16.30;67.20
10062;DHT22;5070;52.382;5.270;2023-03-01T01:11:28;16.30;67.10
10062;DHT22;5070;52.382;5.270;2023-03-01T01:13:58;16.30;67.10
10062;DHT22;5070;52.382;5.270;2023-03-01T01:16:27;16.30;67.10
10062;DHT22;5070;52.382;5.270;2023-03-01T01:18:59;16.30;67.10
10062;DHT22;5070;52.382;5.270;2023-03-01T01:21:30;16.30;67.90
10062;DHT22;5070;52.382;5.270;2023-03-01T01:23:58;16.30;67.20
10062;DHT22;5070;52.382;5.270;2023-03-01T01:26:30;16.30;67.40
10062;DHT22;5070;52.382;5.270;2023-03-01T01:29:01;16.30;67.40
10062;DHT22;5070;52.382;5.270;2023-03-01T01:31:30;16.20;67.40
10062;DHT22;5070;52.382;5.270;2023-03-01T01:33:59;16.20;67.40
10062;DHT22;5070;52.382;5.270;2023-03-01T01:36:27;16.20;67.40
10062;DHT22;5070;52.382;5.270;2023-03-01T01:38:56;16.20;67.40
10062;DHT22;5070;52.382;5.270;2023-03-01T01:41:26;16.20;67.30
10062;DHT22;5070;52.382;5.270;2023-03-01T01:44:14;16.20;67.30
10062;DHT22;5070;52.382;5.270;2023-03-01T01:46:45;16.20;67.30
10062;DHT22;5070;52.382;5.270;2023-03-01T01:49:26;16.20;67.30
10062;DHT22;5070;52.382;5.270;2023-03-01T01:52:00;16.20;67.30
10062;DHT22;5070;52.382;5.270;2023-03-01T01:54:34;16.20;67.30
10062;DHT22;5070;52.382;5.270;2023-03-01T01:57:08;16.20;67.20
10062;DHT22;5070;52.382;5.270;2023-03-01T01:59:43;16.20;67.10
10062;DHT22;5070;52.382;5.270;2023-03-01T02:02:13;16.20;67.10
10062;DHT22;5070;52.382;5.270;2023-03-01T02:04:41;16.20;67.00
10062;DHT22;5070;52.382;5.270;2023-03-01T02:07:13;16.20;67.00
10062;DHT22;5070;52.382;5.270;2023-03-01T02:09:45;16.30;66.90
10062;DHT22;5070;52.382;5.270;2023-03-01T02:12:14;16.30;66.90
10062;DHT22;5070;52.382;5.270;2023-03-01T02:14:44;16.30;67.00
10062;DHT22;5070;52.382;5.270;2023-03-01T02:17:14;16.30;66.90
10062;DHT22;5070;52.382;5.270;2023-03-01T02:19:51;16.30;66.80
10062;DHT22;5070;52.382;5.270;2023-03-01T02:22:23;16.30;67.50
10062;DHT22;5070;52.382;5.270;2023-03-01T02:25:00;16.40;66.80
10062;DHT22;5070;52.382;5.270;2023-03-01T02:27:36;16.40;66.80
10062;DHT22;5070;52.382;5.270;2023-03-01T02:30:08;16.40;66.80
10062;DHT22;5070;52.382;5.270;2023-03-01T02:32:39;16.40;66.80
10062;DHT22;5070;52.382;5.270;2023-03-01T02:35:09;16.40;66.80
10062;DHT22;5070;52.382;5.270;2023-03-01T02:37:39;16.40;66.80
10062;DHT22;5070;52.382;5.270;2023-03-01T02:40:12;16.50;66.90
10062;DHT22;5070;52.382;5.270;2023-03-01T02:42:47;16.50;66.90
10062;DHT22;5070;52.382;5.270;2023-03-01T02:45:18;16.50;66.90
10062;DHT22;5070;52.382;5.270;2023-03-01T02:47:46;16.50;66.90
10062;DHT22;5070;52.382;5.270;2023-03-01T02:50:22;16.50;66.80
10062;DHT22;5070;52.382;5.270;2023-03-01T02:52:56;16.50;66.70
10062;DHT22;5070;52.382;5.270;2023-03-01T02:55:26;16.50;66.60
10062;DHT22;5070;52.382;5.270;2023-03-01T02:57:56;16.50;66.70
10062;DHT22;5070;52.382;5.270;2023-03-01T03:00:29;16.50;66.70
10062;DHT22;5070;52.382;5.270;2023-03-01T03:03:00;16.50;66.60
10062;DHT22;5070;52.382;5.270;2023-03-01T03:05:32;16.50;66.60
10062;DHT22;5070;52.382;5.270;2023-03-01T03:08:02;16.50;66.60
10062;DHT22;5070;52.382;5.270;2023-03-01T03:10:36;16.50;66.70
10062;DHT22;5070;52.382;5.270;2023-03-01T03:13:08;16.40;66.70
10062;DHT22;5070;52.382;5.270;2023-03-01T03:15:39;16.40;66.70
10062;DHT22;5070;52.382;5.270;2023-03-01T03:18:11;16.40;66.70
10062;DHT22;5070;52.382;5.270;2023-03-01T03:20:40;16.40;66.70
10062;DHT22;5070;52.382;5.270;2023-03-01T03:23:12;16.40;66.70
10062;DHT22;5070;52.382;5.270;2023-03-01T03:25:40;16.40;66.70
10062;DHT22;5070;52.382;5.270;2023-03-01T03:28:08;16.30;66.60
10062;DHT22;5070;52.382;5.270;2023-03-01T03:30:40;16.30;66.60
10062;DHT22;5070;52.382;5.270;2023-03-01T03:33:09;16.30;66.60
10062;DHT22;5070;52.382;5.270;2023-03-01T03:35:41;16.30;66.50
10062;DHT22;5070;52.382;5.270;2023-03-01T03:38:11;16.30;66.50
10062;DHT22;5070;52.382;5.270;2023-03-01T03:40:49;16.30;66.50
10062;DHT22;5070;52.382;5.270;2023-03-01T03:43:20;16.20;66.50
10062;DHT22;5070;52.382;5.270;2023-03-01T03:45:50;16.20;66.40
10062;DHT22;5070;52.382;5.270;2023-03-01T03:48:19;16.20;66.50
10062;DHT22;5070;52.382;5.270;2023-03-01T03:50:49;16.20;66.40
10062;DHT22;5070;52.382;5.270;2023-03-01T03:53:18;16.20;66.30
10062;DHT22;5070;52.382;5.270;2023-03-01T03:55:47;16.20;66.20
10062;DHT22;5070;52.382;5.270;2023-03-01T03:58:19;16.30;66.20
10062;DHT22;5070;52.382;5.270;2023-03-01T04:00:50;16.30;66.20
10062;DHT22;5070;52.382;5.270;2023-03-01T04:03:25;16.30;66.80
10062;DHT22;5070;52.382;5.270;2023-03-01T04:05:53;16.30;66.00
10062;DHT22;5070;52.382;5.270;2023-03-01T04:08:22;16.30;66.00
10062;DHT22;5070;52.382;5.270;2023-03-01T04:10:52;16.30;66.70
10062;DHT22;5070;52.382;5.270;2023-03-01T04:13:23;16.30;65.90
10062;DHT22;5070;52.382;5.270;2023-03-01T04:15:56;16.30;65.80
10062;DHT22;5070;52.382;5.270;2023-03-01T04:18:24;16.40;65.90
10062;DHT22;5070;52.382;5.270;2023-03-01T04:20:53;16.40;65.80
10062;DHT22;5070;52.382;5.270;2023-03-01T04:23:22;16.40;65.80
10062;DHT22;5070;52.382;5.270;2023-03-01T04:25:51;16.40;65.80
10062;DHT22;5070;52.382;5.270;2023-03-01T04:28:22;16.40;65.80
10062;DHT22;5070;52.382;5.270;2023-03-01T04:30:51;16.40;65.80
10062;DHT22;5070;52.382;5.270;2023-03-01T04:33:21;16.50;65.90
10062;DHT22;5070;52.382;5.270;2023-03-01T04:35:49;16.50;65.90
10062;DHT22;5070;52.382;5.270;2023-03-01T04:38:19;16.50;65.90
10062;DHT22;5070;52.382;5.270;2023-03-01T04:40:48;16.50;65.80
10062;DHT22;5070;52.382;5.270;2023-03-01T04:43:16;16.50;66.60
10062;DHT22;5070;52.382;5.270;2023-03-01T04:45:44;16.50;65.80
10062;DHT22;5070;52.382;5.270;2023-03-01T04:48:12;16.50;65.70
10062;DHT22;5070;52.382;5.270;2023-03-01T04:50:41;16.50;65.60
10062;DHT22;5070;52.382;5.270;2023-03-01T04:53:09;16.50;65.60
10062;DHT22;5070;52.382;5.270;2023-03-01T04:55:37;16.50;65.50
10062;DHT22;5070;52.382;5.270;2023-03-01T04:58:05;16.50;65.50
10062;DHT22;5070;52.382;5.270;2023-03-01T05:00:33;16.50;65.60
10062;DHT22;5070;52.382;5.270;2023-03-01T05:03:01;16.50;65.60
10062;DHT22;5070;52.382;5.270;2023-03-01T05:05:33;16.50;65.50
10062;DHT22;5070;52.382;5.270;2023-03-01T05:08:06;16.50;65.60
10062;DHT22;5070;52.382;5.270;2023-03-01T05:10:35;16.40;65.50
10062;DHT22;5070;52.382;5.270;2023-03-01T05:13:05;16.40;65.50
10062;DHT22;5070;52.382;5.270;2023-03-01T05:15:33;16.40;65.50
10062;DHT22;5070;52.382;5.270;2023-03-01T05:18:03;16.40;65.60
10062;DHT22;5070;52.382;5.270;2023-03-01T05:20:33;16.40;65.60
10062;DHT22;5070;52.382;5.270;2023-03-01T05:23:04;16.30;65.50
10062;DHT22;5070;52.382;5.270;2023-03-01T05:25:33;16.30;66.20
10062;DHT22;5070;52.382;5.270;2023-03-01T05:28:07;16.30;65.50
10062;DHT22;5070;52.382;5.270;2023-03-01T05:30:37;16.30;65.50
10062;DHT22;5070;52.382;5.270;2023-03-01T05:33:07;16.30;65.50
10062;DHT22;5070;52.382;5.270;2023-03-01T05:35:40;16.30;65.50
10062;DHT22;5070;52.382;5.270;2023-03-01T05:38:11;16.30;65.50
10062;DHT22;5070;52.382;5.270;2023-03-01T05:40:42;16.20;65.30
10062;DHT22;5070;52.382;5.270;2023-03-01T05:43:11;16.20;65.30
10062;DHT22;5070;52.382;5.270;2023-03-01T05:45:40;16.20;65.30
10062;DHT22;5070;52.382;5.270;2023-03-01T05:48:09;16.20;65.40
10062;DHT22;5070;52.382;5.270;2023-03-01T05:50:39;16.20;65.30
10062;DHT22;5070;52.382;5.270;2023-03-01T05:53:11;16.20;65.20
10062;DHT22;5070;52.382;5.270;2023-03-01T05:55:40;16.20;65.10
10062;DHT22;5070;52.382;5.270;2023-03-01T05:58:10;16.20;65.00
10062;DHT22;5070;52.382;5.270;2023-03-01T06:00:41;16.20;65.70
10062;DHT22;5070;52.382;5.270;2023-03-01T06:03:10;16.20;64.80
10062;DHT22;5070;52.382;5.270;2023-03-01T06:05:39;16.30;64.80
10062;DHT22;5070;52.382;5.270;2023-03-01T06:08:08;16.30;64.80
10062;DHT22;5070;52.382;5.270;2023-03-01T06:10:38;16.30;64.80
10062;DHT22;5070;52.382;5.270;2023-03-01T06:13:06;16.30;64.70
10062;DHT22;5070;52.382;5.270;2023-03-01T06:15:34;16.30;64.70
10062;DHT22;5070;52.382;5.270;2023-03-01T06:18:02;16.30;64.60
10062;DHT22;5070;52.382;5.270;2023-03-01T06:20:30;16.30;64.60
10062;DHT22;5070;52.382;5.270;2023-03-01T06:22:58;16.30;64.60
10062;DHT22;5070;52.382;5.270;2023-03-01T06:25:27;16.40;64.60
10062;DHT22;5070;52.382;5.270;2023-03-01T06:27:56;16.40;64.70
10062;DHT22;5070;52.382;5.270;2023-03-01T06:30:25;16.40;64.60
10062;DHT22;5070;52.382;5.270;2023-03-01T06:32:53;16.40;64.70
10062;DHT22;5070;52.382;5.270;2023-03-01T06:35:27;16.40;64.70
10062;DHT22;5070;52.382;5.270;2023-03-01T06:37:57;16.40;64.70
10062;DHT22;5070;52.382;5.270;2023-03-01T06:40:26;16.50;64.80
10062;DHT22;5070;52.382;5.270;2023-03-01T06:42:55;16.50;64.80
10062;DHT22;5070;52.382;5.270;2023-03-01T06:45:24;16.50;64.90
10062;DHT22;5070;52.382;5.270;2023-03-01T06:47:52;16.50;64.80
10062;DHT22;5070;52.382;5.270;2023-03-01T06:50:20;16.50;64.70
10062;DHT22;5070;52.382;5.270;2023-03-01T06:52:48;16.50;64.60
10062;DHT22;5070;52.382;5.270;2023-03-01T06:55:16;16.50;64.50
10062;DHT22;5070;52.382;5.270;2023-03-01T06:57:44;16.50;64.60
10062;DHT22;5070;52.382;5.270;2023-03-01T07:00:14;16.50;64.60
10062;DHT22;5070;52.382;5.270;2023-03-01T07:02:42;16.50;64.60
10062;DHT22;5070;52.382;5.270;2023-03-01T07:05:10;16.50;64.60
10062;DHT22;5070;52.382;5.270;2023-03-01T07:07:38;16.50;64.60
10062;DHT22;5070;52.382;5.270;2023-03-01T07:10:07;16.40;64.60
10062;DHT22;5070;52.382;5.270;2023-03-01T07:12:36;16.50;64.60
10062;DHT22;5070;52.382;5.270;2023-03-01T07:15:05;16.40;64.60
10062;DHT22;5070;52.382;5.270;2023-03-01T07:17:34;16.40;64.70
10062;DHT22;5070;52.382;5.270;2023-03-01T07:20:02;16.40;64.70
10062;DHT22;5070;52.382;5.270;2023-03-01T07:22:30;16.40;64.60
10062;DHT22;5070;52.382;5.270;2023-03-01T07:24:58;16.40;64.70
10062;DHT22;5070;52.382;5.270;2023-03-01T07:27:26;16.40;64.70
10062;DHT22;5070;52.382;5.270;2023-03-01T07:29:54;16.40;64.60
10062;DHT22;5070;52.382;5.270;2023-03-01T07:32:22;16.30;64.60
10062;DHT22;5070;52.382;5.270;2023-03-01T07:34:52;16.30;64.50
10062;DHT22;5070;52.382;5.270;2023-03-01T07:37:20;16.30;64.40
10062;DHT22;5070;52.382;5.270;2023-03-01T07:39:48;16.30;64.30
10062;DHT22;5070;52.382;5.270;2023-03-01T07:42:16;16.30;64.30
10062;DHT22;5070;52.382;5.270;2023-03-01T07:44:44;16.30;64.20
10062;DHT22;5070;52.382;5.270;2023-03-01T07:47:12;16.30;64.20
10062;DHT22;5070;52.382;5.270;2023-03-01T07:49:39;16.30;64.20
10062;DHT22;5070;52.382;5.270;2023-03-01T07:52:11;16.30;64.10
10062;DHT22;5070;52.382;5.270;2023-03-01T07:54:39;16.30;64.00
10062;DHT22;5070;52.382;5.270;2023-03-01T07:57:06;16.30;64.00
10062;DHT22;5070;52.382;5.270;2023-03-01T07:59:34;16.30;63.90
10062;DHT22;5070;52.382;5.270;2023-03-01T08:02:02;16.30;63.80
10062;DHT22;5070;52.382;5.270;2023-03-01T08:04:31;16.30;63.70
10062;DHT22;5070;52.382;5.270;2023-03-01T08:06:59;16.30;63.80
10062;DHT22;5070;52.382;5.270;2023-03-01T08:09:28;16.30;63.60
10062;DHT22;5070;52.382;5.270;2023-03-01T08:11:57;16.40;63.60
10062;DHT22;5070;52.382;5.270;2023-03-01T08:14:26;16.40;63.40
10062;DHT22;5070;52.382;5.270;2023-03-01T08:16:54;16.40;63.40
10062;DHT22;5070;52.382;5.270;2023-03-01T08:19:22;16.40;63.40
10062;DHT22;5070;52.382;5.270;2023-03-01T08:21:50;16.40;63.60
10062;DHT22;5070;52.382;5.270;2023-03-01T08:24:19;16.50;64.60
10062;DHT22;5070;52.382;5.270;2023-03-01T08:26:50;16.50;66.00
10062;DHT22;5070;52.382;5.270;2023-03-01T08:29:19;16.60;66.70
10062;DHT22;5070;52.382;5.270;2023-03-01T08:31:50;16.60;68.30
10062;DHT22;5070;52.382;5.270;2023-03-01T08:34:18;16.60;68.80
10062;DHT22;5070;52.382;5.270;2023-03-01T08:36:47;16.60;68.80
10062;DHT22;5070;52.382;5.270;2023-03-01T08:39:16;16.70;68.90
10062;DHT22;5070;52.382;5.270;2023-03-01T08:41:45;16.70;69.20
10062;DHT22;5070;52.382;5.270;2023-03-01T08:44:15;16.70;68.70
10062;DHT22;5070;52.382;5.270;2023-03-01T08:46:44;16.70;68.30
10062;DHT22;5070;52.382;5.270;2023-03-01T08:49:15;16.80;69.30
10062;DHT22;5070;52.382;5.270;2023-03-01T08:51:44;16.80;69.10
10062;DHT22;5070;52.382;5.270;2023-03-01T08:54:14;16.80;69.30
10062;DHT22;5070;52.382;5.270;2023-03-01T08:56:43;16.80;69.00
10062;DHT22;5070;52.382;5.270;2023-03-01T08:59:11;16.80;69.30
10062;DHT22;5070;52.382;5.270;2023-03-01T09:01:41;16.90;69.70
10062;DHT22;5070;52.382;5.270;2023-03-01T09:04:11;16.90;69.70
10062;DHT22;5070;52.382;5.270;2023-03-01T09:06:45;16.90;69.90
10062;DHT22;5070;52.382;5.270;2023-03-01T09:09:16;16.90;69.90
10062;DHT22;5070;52.382;5.270;2023-03-01T09:11:45;16.90;70.00
10062;DHT22;5070;52.382;5.270;2023-03-01T09:14:13;16.90;70.20
10062;DHT22;5070;52.382;5.270;2023-03-01T09:16:43;16.90;70.20
10062;DHT22;5070;52.382;5.270;2023-03-01T09:19:11;17.00;70.60
10062;DHT22;5070;52.382;5.270;2023-03-01T09:21:39;17.00;70.70
10062;DHT22;5070;52.382;5.270;2023-03-01T09:24:12;17.00;70.70
10062;DHT22;5070;52.382;5.270;2023-03-01T09:26:40;17.00;70.90
10062;DHT22;5070;52.382;5.270;2023-03-01T09:29:08;17.00;71.10
10062;DHT22;5070;52.382;5.270;2023-03-01T09:31:37;17.00;71.30
10062;DHT22;5070;52.382;5.270;2023-03-01T09:34:07;17.00;71.40
10062;DHT22;5070;52.382;5.270;2023-03-01T09:36:36;17.10;71.30
10062;DHT22;5070;52.382;5.270;2023-03-01T09:39:04;17.10;71.60
10062;DHT22;5070;52.382;5.270;2023-03-01T09:41:43;17.10;71.70
10062;DHT22;5070;52.382;5.270;2023-03-01T09:44:20;17.10;71.50
10062;DHT22;5070;52.382;5.270;2023-03-01T09:46:50;17.10;71.30
10062;DHT22;5070;52.382;5.270;2023-03-01T09:49:23;17.10;70.50
10062;DHT22;5070;52.382;5.270;2023-03-01T09:51:57;17.10;70.90
10062;DHT22;5070;52.382;5.270;2023-03-01T09:54:26;17.10;71.10
10062;DHT22;5070;52.382;5.270;2023-03-01T09:57:03;17.10;71.20
10062;DHT22;5070;52.382;5.270;2023-03-01T09:59:40;17.20;70.90
10062;DHT22;5070;52.382;5.270;2023-03-01T10:02:23;17.20;71.40
10062;DHT22;5070;52.382;5.270;2023-03-01T10:04:57;17.20;71.50
10062;DHT22;5070;52.382;5.270;2023-03-01T10:07:32;17.20;71.80
10062;DHT22;5070;52.382;5.270;2023-03-01T10:10:05;17.20;71.10
10062;DHT22;5070;52.382;5.270;2023-03-01T10:12:37;17.20;70.90
10062;DHT22;5070;52.382;5.270;2023-03-01T10:15:13;17.20;70.90
10062;DHT22;5070;52.382;5.270;2023-03-01T10:17:46;17.20;70.40
10062;DHT22;5070;52.382;5.270;2023-03-01T10:20:21;17.20;70.50
10062;DHT22;5070;52.382;5.270;2023-03-01T10:22:50;17.20;70.50
10062;DHT22;5070;52.382;5.270;2023-03-01T10:25:36;17.20;71.00
10062;DHT22;5070;52.382;5.270;2023-03-01T10:28:16;17.20;70.30
10062;DHT22;5070;52.382;5.270;2023-03-01T10:30:45;17.20;70.00
10062;DHT22;5070;52.382;5.270;2023-03-01T10:33:19;17.30;70.30
10062;DHT22;5070;52.382;5.270;2023-03-01T10:35:49;17.30;71.10
10062;DHT22;5070;52.382;5.270;2023-03-01T10:38:18;17.30;70.90
10062;DHT22;5070;52.382;5.270;2023-03-01T10:40:53;17.30;70.80
10062;DHT22;5070;52.382;5.270;2023-03-01T10:43:24;17.30;71.10
10062;DHT22;5070;52.382;5.270;2023-03-01T10:45:53;17.30;70.40
10062;DHT22;5070;52.382;5.270;2023-03-01T10:48:23;17.30;70.40
10062;DHT22;5070;52.382;5.270;2023-03-01T10:51:07;17.30;70.10
10062;DHT22;5070;52.382;5.270;2023-03-01T10:53:37;17.30;70.10
10062;DHT22;5070;52.382;5.270;2023-03-01T10:56:07;17.30;69.70
10062;DHT22;5070;52.382;5.270;2023-03-01T10:58:37;17.30;70.10
10062;DHT22;5070;52.382;5.270;2023-03-01T11:01:24;17.30;69.90
10062;DHT22;5070;52.382;5.270;2023-03-01T11:04:10;17.40;70.00
10062;DHT22;5070;52.382;5.270;2023-03-01T11:06:41;17.40;70.10
10062;DHT22;5070;52.382;5.270;2023-03-01T11:09:17;17.40;69.90
10062;DHT22;5070;52.382;5.270;2023-03-01T11:11:46;17.40;69.50
10062;DHT22;5070;52.382;5.270;2023-03-01T11:14:16;17.40;69.90
10062;DHT22;5070;52.382;5.270;2023-03-01T11:17:00;17.40;69.70
10062;DHT22;5070;52.382;5.270;2023-03-01T11:19:29;17.40;69.70
10062;DHT22;5070;52.382;5.270;2023-03-01T11:22:02;17.40;69.50
10062;DHT22;5070;52.382;5.270;2023-03-01T11:24:34;17.40;69.70
10062;DHT22;5070;52.382;5.270;2023-03-01T11:27:10;17.40;69.70
10062;DHT22;5070;52.382;5.270;2023-03-01T11:29:42;17.40;69.60
10062;DHT22;5070;52.382;5.270;2023-03-01T11:32:15;17.40;69.50
10062;DHT22;5070;52.382;5.270;2023-03-01T11:34:47;17.50;69.70
10062;DHT22;5070;52.382;5.270;2023-03-01T11:37:24;17.40;69.40
10062;DHT22;5070;52.382;5.270;2023-03-01T11:39:59;17.50;69.50
10062;DHT22;5070;52.382;5.270;2023-03-01T11:42:42;17.50;69.70
10062;DHT22;5070;52.382;5.270;2023-03-01T11:45:13;17.50;69.60
10062;DHT22;5070;52.382;5.270;2023-03-01T11:47:51;17.50;69.60
10062;DHT22;5070;52.382;5.270;2023-03-01T11:50:30;17.50;69.70
10062;DHT22;5070;52.382;5.270;2023-03-01T11:53:27;17.50;69.60
10062;DHT22;5070;52.382;5.270;2023-03-01T11:56:08;17.50;69.60
10062;DHT22;5070;52.382;5.270;2023-03-01T11:58:51;17.50;69.60
10062;DHT22;5070;52.382;5.270;2023-03-01T12:01:40;17.50;69.70
10062;DHT22;5070;52.382;5.270;2023-03-01T12:04:33;17.50;69.70
10062;DHT22;5070;52.382;5.270;2023-03-01T12:07:07;17.50;69.60
10062;DHT22;5070;52.382;5.270;2023-03-01T12:09:48;17.60;69.80
10062;DHT22;5070;52.382;5.270;2023-03-01T12:12:35;17.60;70.50
10062;DHT22;5070;52.382;5.270;2023-03-01T12:15:30;17.60;69.80
10062;DHT22;5070;52.382;5.270;2023-03-01T12:18:23;17.60;70.00
10062;DHT22;5070;52.382;5.270;2023-03-01T12:21:01;17.60;69.90
10062;DHT22;5070;52.382;5.270;2023-03-01T12:24:00;17.60;69.80
10062;DHT22;5070;52.382;5.270;2023-03-01T12:26:35;17.60;69.90
10062;DHT22;5070;52.382;5.270;2023-03-01T12:29:24;17.60;69.90
10062;DHT22;5070;52.382;5.270;2023-03-01T12:32:20;17.60;69.90
10062;DHT22;5070;52.382;5.270;2023-03-01T12:35:09;17.60;70.10
10062;DHT22;5070;52.382;5.270;2023-03-01T12:37:49;17.60;70.10
10062;DHT22;5070;52.382;5.270;2023-03-01T12:43:26;17.60;70.10
10062;DHT22;5070;52.382;5.270;2023-03-01T12:46:07;17.70;70.20
10062;DHT22;5070;52.382;5.270;2023-03-01T12:48:46;17.70;70.10
10062;DHT22;5070;52.382;5.270;2023-03-01T12:51:19;17.70;70.20
10062;DHT22;5070;52.382;5.270;2023-03-01T12:53:50;17.70;70.10
10062;DHT22;5070;52.382;5.270;2023-03-01T12:56:21;17.70;70.00
10062;DHT22;5070;52.382;5.270;2023-03-01T12:58:59;17.70;70.10
10062;DHT22;5070;52.382;5.270;2023-03-01T13:01:41;17.70;70.10
10062;DHT22;5070;52.382;5.270;2023-03-01T13:04:23;17.70;70.20
10062;DHT22;5070;52.382;5.270;2023-03-01T13:07:21;17.70;70.20
10062;DHT22;5070;52.382;5.270;2023-03-01T13:09:57;17.70;70.20
10062;DHT22;5070;52.382;5.270;2023-03-01T13:12:46;17.80;70.20
10062;DHT22;5070;52.382;5.270;2023-03-01T13:15:32;17.80;70.20
10062;DHT22;5070;52.382;5.270;2023-03-01T13:18:01;17.80;70.30
10062;DHT22;5070;52.382;5.270;2023-03-01T13:20:33;17.80;70.30
10062;DHT22;5070;52.382;5.270;2023-03-01T13:23:09;17.80;70.20
10062;DHT22;5070;52.382;5.270;2023-03-01T13:26:02;17.80;70.30
10062;DHT22;5070;52.382;5.270;2023-03-01T13:28:40;17.80;70.30
10062;DHT22;5070;52.382;5.270;2023-03-01T13:34:53;17.80;70.30
10062;DHT22;5070;52.382;5.270;2023-03-01T13:37:33;17.80;70.40
10062;DHT22;5070;52.382;5.270;2023-03-01T13:40:08;17.80;70.20
10062;DHT22;5070;52.382;5.270;2023-03-01T13:42:55;17.80;70.40
10062;DHT22;5070;52.382;5.270;2023-03-01T13:45:37;17.80;70.20
10062;DHT22;5070;52.382;5.270;2023-03-01T13:48:10;17.80;70.40
10062;DHT22;5070;52.382;5.270;2023-03-01T13:50:50;17.80;70.30
10062;DHT22;5070;52.382;5.270;2023-03-01T13:53:20;17.80;70.50
10062;DHT22;5070;52.382;5.270;2023-03-01T13:55:52;17.80;70.40
10062;DHT22;5070;52.382;5.270;2023-03-01T13:58:28;17.90;70.70
10062;DHT22;5070;52.382;5.270;2023-03-01T14:00:59;17.90;70.70
10062;DHT22;5070;52.382;5.270;2023-03-01T14:03:31;17.90;70.70
10062;DHT22;5070;52.382;5.270;2023-03-01T14:06:04;17.90;70.70
10062;DHT22;5070;52.382;5.270;2023-03-01T14:08:42;17.90;70.90
10062;DHT22;5070;52.382;5.270;2023-03-01T14:17:09;17.90;70.90
10062;DHT22;5070;52.382;5.270;2023-03-01T14:19:41;17.90;71.00
10062;DHT22;5070;52.382;5.270;2023-03-01T14:22:20;17.90;71.10
10062;DHT22;5070;52.382;5.270;2023-03-01T14:24:54;17.90;71.00
10062;DHT22;5070;52.382;5.270;2023-03-01T14:27:30;17.90;71.00
10062;DHT22;5070;52.382;5.270;2023-03-01T14:30:11;17.90;71.10
10062;DHT22;5070;52.382;5.270;2023-03-01T14:32:40;17.90;71.10
10062;DHT22;5070;52.382;5.270;2023-03-01T14:35:20;18.00;71.20
10062;DHT22;5070;52.382;5.270;2023-03-01T14:37:49;18.00;71.20
10062;DHT22;5070;52.382;5.270;2023-03-01T14:40:23;18.00;71.30
10062;DHT22;5070;52.382;5.270;2023-03-01T14:42:52;18.00;71.30
10062;DHT22;5070;52.382;5.270;2023-03-01T14:45:25;18.00;71.30
10062;DHT22;5070;52.382;5.270;2023-03-01T14:47:54;18.00;71.30
10062;DHT22;5070;52.382;5.270;2023-03-01T14:50:26;18.00;71.30
10062;DHT22;5070;52.382;5.270;2023-03-01T14:52:57;18.00;71.30
10062;DHT22;5070;52.382;5.270;2023-03-01T14:55:28;18.00;71.30
10062;DHT22;5070;52.382;5.270;2023-03-01T14:57:58;18.00;71.30
10062;DHT22;5070;52.382;5.270;2023-03-01T15:00:31;18.00;71.30
10062;DHT22;5070;52.382;5.270;2023-03-01T15:03:04;18.00;71.40
10062;DHT22;5070;52.382;5.270;2023-03-01T15:05:37;18.10;71.40
10062;DHT22;5070;52.382;5.270;2023-03-01T15:08:05;18.10;71.40
10062;DHT22;5070;52.382;5.270;2023-03-01T15:10:35;18.10;71.40
10062;DHT22;5070;52.382;5.270;2023-03-01T15:13:22;18.10;71.30
10062;DHT22;5070;52.382;5.270;2023-03-01T15:15:53;18.10;71.00
10062;DHT22;5070;52.382;5.270;2023-03-01T15:18:29;18.10;71.30
10062;DHT22;5070;52.382;5.270;2023-03-01T15:21:06;18.10;70.90
10062;DHT22;5070;52.382;5.270;2023-03-01T15:23:37;18.10;71.10
10062;DHT22;5070;52.382;5.270;2023-03-01T15:26:06;18.10;70.90
10062;DHT22;5070;52.382;5.270;2023-03-01T15:28:50;18.10;70.60
10062;DHT22;5070;52.382;5.270;2023-03-01T15:31:22;18.10;70.70
10062;DHT22;5070;52.382;5.270;2023-03-01T15:33:51;18.10;70.40
10062;DHT22;5070;52.382;5.270;2023-03-01T15:36:36;18.10;70.70
10062;DHT22;5070;52.382;5.270;2023-03-01T15:39:05;18.10;70.60
10062;DHT22;5070;52.382;5.270;2023-03-01T15:41:45;18.10;70.30
10062;DHT22;5070;52.382;5.270;2023-03-01T15:44:16;18.10;70.30
10062;DHT22;5070;52.382;5.270;2023-03-01T15:46:47;18.10;70.10
10062;DHT22;5070;52.382;5.270;2023-03-01T15:49:27;18.10;70.10
10062;DHT22;5070;52.382;5.270;2023-03-01T15:51:59;18.10;69.30
10062;DHT22;5070;52.382;5.270;2023-03-01T15:54:27;18.10;69.00
10062;DHT22;5070;52.382;5.270;2023-03-01T15:56:55;18.10;69.60
10062;DHT22;5070;52.382;5.270;2023-03-01T15:59:23;18.10;68.10
10062;DHT22;5070;52.382;5.270;2023-03-01T16:01:52;18.10;67.60
10062;DHT22;5070;52.382;5.270;2023-03-01T16:04:21;18.10;66.80
10062;DHT22;5070;52.382;5.270;2023-03-01T16:06:51;18.10;65.40
10062;DHT22;5070;52.382;5.270;2023-03-01T16:09:22;18.10;65.40
10062;DHT22;5070;52.382;5.270;2023-03-01T16:11:52;18.10;64.80
10062;DHT22;5070;52.382;5.270;2023-03-01T16:14:20;18.00;63.90
10062;DHT22;5070;52.382;5.270;2023-03-01T16:16:48;18.00;63.70
10062;DHT22;5070;52.382;5.270;2023-03-01T16:19:18;18.00;63.60
10062;DHT22;5070;52.382;5.270;2023-03-01T16:21:46;18.00;63.00
10062;DHT22;5070;52.382;5.270;2023-03-01T16:24:15;18.00;62.90
10062;DHT22;5070;52.382;5.270;2023-03-01T16:26:43;18.00;62.70
10062;DHT22;5070;52.382;5.270;2023-03-01T16:29:11;18.00;62.30